Time;durP1;ratioP1;P1;durP2;ratioP2;P2;SDS_P1;SDS_P2;PMS_P1;PMS_P2;Temp;Humidity;BMP_temperature;BMP_pressure;BME280_temperature;BME280_humidity;BME280_pressure;Samples;Min_cycle;Max_cycle;Signal;HPM_P1;HPM_P2
2022/07/16 00:03:35;;;;;;;9.80;7.18;;;;;;;22.42;81.81;94446.31;4982371;28;20097;-88
2022/07/16 00:06:01;;;;;;;10.23;7.25;;;;;;;22.46;81.26;94447.19;4964089;28;20030;-88
2022/07/16 00:08:26;;;;;;;10.60;7.13;;;;;;;22.54;81.13;94445.50;4980003;28;20030;-89
2022/07/16 00:10:52;;;;;;;11.15;6.90;;;;;;;22.93;76.35;94452.94;4980048;28;20037;-88
2022/07/16 00:13:17;;;;;;;8.38;6.88;;;;;;;23.29;72.64;94455.72;4979643;28;20061;-88
2022/07/16 00:15:45;;;;;;;8.98;6.75;;;;;;;23.47;71.71;94453.47;4980318;28;20061;-88
2022/07/16 00:20:54;;;;;;;8.77;6.88;;;;;;;23.70;69.24;94450.16;4982484;28;20037;-89
2022/07/16 00:23:20;;;;;;;13.52;7.13;;;;;;;23.76;67.45;94446.06;4979522;28;20022;-90
2022/07/16 00:25:45;;;;;;;10.13;6.50;;;;;;;23.73;67.30;94444.84;4979523;28;20026;-89
2022/07/16 00:28:10;;;;;;;12.73;6.25;;;;;;;23.94;65.37;94442.97;4964046;28;20026;-87
2022/07/16 00:30:36;;;;;;;8.18;6.47;;;;;;;23.68;67.73;94442.47;4963914;28;20343;-88
2022/07/16 00:33:01;;;;;;;10.50;6.55;;;;;;;23.79;64.61;94449.94;4996680;28;20026;-89
2022/07/16 00:35:27;;;;;;;9.85;5.40;;;;;;;23.93;62.27;94436.06;4979837;28;20022;-89
2022/07/16 00:37:54;;;;;;;11.60;6.30;;;;;;;23.75;63.42;94441.84;4979927;28;20450;-89
2022/07/16 00:40:19;;;;;;;6.95;5.60;;;;;;;23.83;62.50;94437.41;4979449;28;20022;-89
2022/07/16 00:42:45;;;;;;;7.30;5.63;;;;;;;23.89;61.85;94443.25;4982715;28;20109;-88
2022/07/16 00:45:10;;;;;;;6.82;5.65;;;;;;;23.74;62.70;94442.97;4967818;28;20023;-88
2022/07/16 00:47:36;;;;;;;8.43;6.10;;;;;;;23.61;63.85;94439.66;4967309;28;20125;-89
2022/07/16 00:50:02;;;;;;;10.07;6.05;;;;;;;23.59;63.99;94452.56;4967435;28;20030;-89
2022/07/16 00:52:28;;;;;;;9.23;5.78;;;;;;;23.63;63.40;94455.31;4967479;28;20057;-89
2022/07/16 00:54:56;;;;;;;14.43;6.38;;;;;;;23.54;64.34;94458.97;4982902;28;20026;-88
2022/07/16 00:57:28;;;;;;;8.45;5.88;;;;;;;23.36;65.71;94447.88;4983240;28;20022;-88
2022/07/16 00:59:53;;;;;;;7.65;5.90;;;;;;;23.15;67.12;94448.88;4983502;28;20077;-89
2022/07/16 01:02:19;;;;;;;6.72;6.00;;;;;;;23.15;65.32;94453.47;4983145;28;20034;-88
2022/07/16 01:04:45;;;;;;;8.50;6.05;;;;;;;23.10;67.01;94459.09;4966817;28;20026;-88
2022/07/16 01:07:10;;;;;;;8.05;6.25;;;;;;;22.98;67.85;94449.25;4966988;28;20030;-89
2022/07/16 01:09:36;;;;;;;9.80;6.22;;;;;;;22.84;70.44;94450.44;4982620;28;20489;-89
2022/07/16 01:12:02;;;;;;;12.05;5.95;;;;;;;22.50;71.99;94446.53;4967053;28;20026;-89
2022/07/16 01:14:30;;;;;;;9.32;6.10;;;;;;;22.25;74.79;94451.97;4982492;28;20033;-88
2022/07/16 01:16:57;;;;;;;8.95;6.03;;;;;;;22.26;77.01;94453.50;4967409;28;20331;-89
2022/07/16 01:19:23;;;;;;;8.75;6.88;;;;;;;22.25;74.50;94449.28;4967176;28;20347;-90
2022/07/16 01:21:51;;;;;;;7.53;6.00;;;;;;;22.21;75.59;94445.72;4966462;28;20034;-89
2022/07/16 01:24:16;;;;;;;8.90;6.40;;;;;;;22.14;75.43;94449.75;4966667;28;20030;-89
2022/07/16 01:26:42;;;;;;;9.90;6.70;;;;;;;22.24;74.41;94448.50;4967025;28;20035;-89
2022/07/16 01:29:07;;;;;;;7.13;6.25;;;;;;;22.14;75.59;94454.31;4982821;28;20062;-89
2022/07/16 01:31:36;;;;;;;8.70;5.70;;;;;;;22.01;76.79;94454.34;4966607;28;20034;-89
2022/07/16 01:36:59;;;;;;;6.32;5.57;;;;;;;21.89;78.40;94455.16;4999767;28;20084;-89
2022/07/16 01:39:26;;;;;;;8.32;6.05;;;;;;;21.85;78.69;94456.19;4982180;28;20030;-89
2022/07/16 01:41:53;;;;;;;10.13;5.78;;;;;;;21.69;79.66;94453.44;4966230;28;20439;-88
2022/07/16 01:44:18;;;;;;;8.88;6.50;;;;;;;21.80;78.74;94453.75;4965730;28;20026;-89
2022/07/16 01:46:44;;;;;;;7.10;5.82;;;;;;;21.82;78.36;94454.97;4966279;28;20030;-89
2022/07/16 01:49:09;;;;;;;13.63;6.05;;;;;;;21.88;77.48;94461.63;4966372;28;20026;-89
2022/07/16 01:51:35;;;;;;;9.45;6.07;;;;;;;21.70;81.16;94455.75;4966015;28;20127;-88
2022/07/16 01:54:00;;;;;;;8.48;5.68;;;;;;;21.65;85.35;94447.97;4980744;28;20392;-88
2022/07/16 01:56:26;;;;;;;7.38;5.85;;;;;;;21.65;81.79;94452.50;4982172;28;20093;-89
2022/07/16 01:58:51;;;;;;;7.18;5.55;;;;;;;21.81;77.45;94456.09;4981913;28;20418;-88
2022/07/16 02:01:23;;;;;;;9.23;5.80;;;;;;;21.92;76.12;94455.59;4966119;28;20037;-88
2022/07/16 02:03:48;;;;;;;9.10;6.03;;;;;;;22.01;75.26;94453.59;4998929;28;20125;-89
2022/07/16 02:06:14;;;;;;;8.00;5.68;;;;;;;21.93;76.76;94454.50;4981705;28;20116;-88
2022/07/16 02:08:39;;;;;;;10.23;6.30;;;;;;;21.82;77.90;94448.84;4981958;28;20026;-88
2022/07/16 02:11:04;;;;;;;8.07;6.20;;;;;;;21.56;81.67;94448.09;4965949;28;20036;-88
2022/07/16 02:13:30;;;;;;;9.90;6.45;;;;;;;21.50;81.77;94456.66;4981249;28;20057;-88
2022/07/16 02:15:56;;;;;;;8.15;5.97;;;;;;;21.44;82.80;94453.44;4961810;28;20026;-88
2022/07/16 02:18:21;;;;;;;9.60;6.05;;;;;;;21.25;87.09;94451.34;4980628;28;20458;-88
2022/07/16 02:20:47;;;;;;;7.28;6.20;;;;;;;21.35;85.93;94453.56;4981265;28;20026;-89
2022/07/16 02:23:12;;;;;;;10.15;6.20;;;;;;;21.24;87.07;94455.91;4981161;28;20026;-89
2022/07/16 02:25:39;;;;;;;9.27;5.88;;;;;;;21.19;85.92;94459.56;4980835;28;20038;-89
2022/07/16 02:28:11;;;;;;;10.00;5.47;;;;;;;21.32;82.54;94460.31;4965880;28;20065;-89
2022/07/16 02:30:53;;;;;;;8.48;6.32;;;;;;;21.15;87.09;94469.31;4981320;28;20022;-89
2022/07/16 02:33:19;;;;;;;9.05;6.10;;;;;;;21.01;86.92;94468.84;4981772;28;20085;-89
2022/07/16 02:35:45;;;;;;;11.30;5.93;;;;;;;21.02;86.92;94465.09;4981415;28;20367;-89
2022/07/16 02:38:12;;;;;;;7.20;5.43;;;;;;;21.22;82.39;94468.75;4980962;28;20085;-88
2022/07/16 02:40:39;;;;;;;6.40;5.50;;;;;;;21.38;79.58;94473.44;4981286;28;20026;-89
2022/07/16 02:43:06;;;;;;;8.05;5.22;;;;;;;21.38;79.43;94474.22;4964368;28;20042;-88
2022/07/16 02:45:37;;;;;;;8.35;5.45;;;;;;;21.46;79.15;94473.31;4981385;28;20088;-89
2022/07/16 02:48:03;;;;;;;8.85;5.55;;;;;;;21.40;80.88;94468.56;4965213;28;20031;-89
2022/07/16 02:50:29;;;;;;;6.28;5.40;;;;;;;21.36;80.59;94470.31;4964568;28;20036;-89
2022/07/16 02:52:55;;;;;;;9.30;5.53;;;;;;;21.31;80.69;94466.75;4978832;28;20133;-89
2022/07/16 02:55:20;;;;;;;8.15;5.47;;;;;;;21.32;80.56;94468.31;4980902;28;20033;-89
2022/07/16 02:57:46;;;;;;;10.55;5.25;;;;;;;21.44;77.64;94466.75;4998250;28;20033;-89
2022/07/16 03:00:21;;;;;;;6.65;4.57;;;;;;;21.52;76.01;94465.09;4980975;28;20352;-88
2022/07/16 03:02:47;;;;;;;11.15;5.35;;;;;;;21.69;74.45;94464.13;4980430;28;20034;-89
2022/07/16 03:05:13;;;;;;;7.72;5.45;;;;;;;21.75;75.04;94468.88;4980388;28;20084;-89
2022/07/16 03:07:41;;;;;;;9.25;5.18;;;;;;;21.79;73.28;94460.97;4965095;28;20041;-88
2022/07/16 03:10:10;;;;;;;6.80;5.07;;;;;;;21.78;73.21;94470.06;4980754;28;20065;-89
2022/07/16 03:12:44;;;;;;;10.57;5.15;;;;;;;21.72;72.54;94463.44;4980391;28;20037;-89
2022/07/16 03:15:11;;;;;;;7.90;4.60;;;;;;;21.60;76.13;94472.22;4966013;28;20093;-89
2022/07/16 03:17:37;;;;;;;8.70;4.90;;;;;;;21.71;72.40;94469.88;4965035;28;20026;-88
2022/07/16 03:20:09;;;;;;;6.30;4.47;;;;;;;21.71;71.90;94467.22;4980525;28;20052;-88
2022/07/16 03:22:42;;;;;;;7.03;4.55;;;;;;;21.62;74.71;94475.31;4979516;28;20128;-88
2022/07/16 03:25:07;;;;;;;7.32;4.80;;;;;;;21.58;73.86;94471.75;4997868;28;20031;-89
2022/07/16 03:27:33;;;;;;;10.05;5.00;;;;;;;21.55;73.99;94475.88;4980164;28;20045;-88
2022/07/16 03:30:03;;;;;;;5.85;4.88;;;;;;;21.42;74.80;94469.00;4964589;28;20439;-89
2022/07/16 03:32:29;;;;;;;5.78;4.57;;;;;;;21.37;76.10;94472.66;4965307;28;20030;-88
2022/07/16 03:34:54;;;;;;;5.43;4.38;;;;;;;21.33;75.56;94471.78;4964067;28;20042;-89
2022/07/16 03:37:20;;;;;;;7.35;5.00;;;;;;;21.55;73.51;94470.53;4980365;28;20345;-90
2022/07/16 03:39:46;;;;;;;9.30;5.43;;;;;;;21.67;71.75;94475.09;4964476;28;20022;-88
2022/07/16 03:42:16;;;;;;;6.18;4.57;;;;;;;21.65;73.56;94473.84;4980463;28;20125;-89
2022/07/16 03:44:42;;;;;;;7.50;5.25;;;;;;;21.40;77.19;94479.97;4964401;28;20038;-89
2022/07/16 03:47:10;;;;;;;12.23;5.05;;;;;;;21.32;76.96;94476.31;4980606;28;20045;-89
2022/07/16 03:49:36;;;;;;;6.30;4.72;;;;;;;21.30;79.39;94481.19;4980289;28;20099;-88
2022/07/16 03:52:01;;;;;;;9.02;4.82;;;;;;;21.08;81.56;94482.41;4980198;28;20451;-89
2022/07/16 03:54:27;;;;;;;10.32;5.30;;;;;;;20.88;83.84;94487.50;4997099;28;20042;-88
2022/07/16 03:56:52;;;;;;;6.43;5.00;;;;;;;20.78;83.47;94490.53;4997508;28;20058;-87
2022/07/16 03:59:17;;;;;;;7.97;4.93;;;;;;;20.80;86.24;94493.66;4980075;28;20038;-88
2022/07/16 04:01:43;;;;;;;8.57;4.90;;;;;;;20.53;86.91;94492.38;4980093;28;20097;-88
2022/07/16 04:04:09;;;;;;;7.65;5.05;;;;;;;20.37;90.09;94485.00;4979677;28;20026;-88
2022/07/16 04:06:37;;;;;;;6.32;4.75;;;;;;;20.32;95.27;94485.97;4979869;28;20034;-88
2022/07/16 04:09:04;;;;;;;8.55;5.22;;;;;;;20.30;92.26;94488.19;4966550;28;20317;-88
2022/07/16 04:11:30;;;;;;;7.47;4.93;;;;;;;20.39;91.32;94490.75;4979776;28;20130;-89
2022/07/16 04:13:55;;;;;;;8.02;4.70;;;;;;;20.55;89.82;94498.91;4979726;28;20061;-88
2022/07/16 04:16:23;;;;;;;7.68;5.15;;;;;;;20.41;90.92;94491.22;4981470;28;20030;-88
2022/07/16 04:18:48;;;;;;;7.45;5.53;;;;;;;20.41;91.28;94493.06;4983695;28;20034;-88
2022/07/16 04:21:14;;;;;;;6.72;5.05;;;;;;;20.57;90.41;94495.91;5000834;28;20355;-88
2022/07/16 04:23:40;;;;;;;6.05;4.30;;;;;;;20.77;88.58;94503.06;4967414;28;20026;-88
2022/07/16 04:26:05;;;;;;;7.57;5.10;;;;;;;20.84;84.85;94501.78;4967219;28;20030;-89
2022/07/16 04:28:31;;;;;;;6.75;5.07;;;;;;;20.85;87.33;94501.44;4967460;28;20030;-88
2022/07/16 04:30:56;;;;;;;7.13;5.10;;;;;;;20.72;88.96;94503.28;4983534;28;20054;-88
2022/07/16 04:33:23;;;;;;;7.53;4.85;;;;;;;20.76;89.41;94504.16;4967270;28;20427;-88
2022/07/16 04:35:50;;;;;;;10.98;5.25;;;;;;;20.61;97.70;94497.59;4983792;28;20341;-88
2022/07/16 04:38:16;;;;;;;9.40;4.90;;;;;;;20.64;95.37;94506.78;4983536;28;20421;-88
2022/07/16 04:40:42;;;;;;;8.32;5.20;;;;;;;20.73;95.01;94501.38;4983314;28;20022;-88
2022/07/16 04:43:07;;;;;;;9.15;4.93;;;;;;;20.71;97.96;94501.72;4966491;28;20049;-88
2022/07/16 04:45:33;;;;;;;5.07;4.30;;;;;;;20.85;96.40;94498.78;4983341;28;20030;-88
2022/07/16 04:47:59;;;;;;;5.72;4.70;;;;;;;20.95;93.77;94500.28;4983358;28;20022;-88
2022/07/16 04:50:24;;;;;;;6.20;5.00;;;;;;;20.79;97.43;94501.94;4982570;28;20034;-88
2022/07/16 04:52:50;;;;;;;6.43;5.18;;;;;;;20.77;98.53;94505.72;4966845;28;20581;-89
2022/07/16 04:55:18;;;;;;;10.45;4.75;;;;;;;20.65;98.11;94505.69;4983140;28;20038;-88
2022/07/16 04:57:44;;;;;;;8.68;5.03;;;;;;;20.73;98.43;94502.16;4967241;28;20026;-88
2022/07/16 05:00:11;;;;;;;9.20;5.20;;;;;;;20.93;99.39;94501.69;4983221;28;20501;-88
2022/07/16 05:05:20;;;;;;;6.60;4.80;;;;;;;20.89;100.00;94505.03;4985668;28;20034;-88
2022/07/16 05:07:49;;;;;;;9.23;5.10;;;;;;;20.94;100.00;94505.91;4967018;28;20340;-88
2022/07/16 05:10:16;;;;;;;5.57;4.53;;;;;;;20.95;100.00;94510.91;4967025;28;20450;-88
2022/07/16 05:12:42;;;;;;;7.55;4.40;;;;;;;21.00;100.00;94509.91;4981306;28;20026;-88
2022/07/16 05:15:08;;;;;;;6.20;4.47;;;;;;;21.12;100.00;94507.28;4976212;28;20355;-88
2022/07/16 05:17:33;;;;;;;5.95;4.68;;;;;;;21.41;100.00;94518.06;4966879;28;20072;-88
2022/07/16 05:19:59;;;;;;;8.07;5.00;;;;;;;21.57;100.00;94513.63;4966725;28;20042;-88
2022/07/16 05:22:24;;;;;;;6.97;5.28;;;;;;;21.64;100.00;94507.75;4982545;28;20193;-88
2022/07/16 05:24:50;;;;;;;8.18;4.90;;;;;;;21.77;100.00;94505.84;4982413;28;20113;-88
2022/07/16 05:27:15;;;;;;;7.70;5.10;;;;;;;21.91;96.41;94512.72;4981985;28;20042;-88
2022/07/16 05:29:41;;;;;;;7.03;4.88;;;;;;;21.97;88.84;94517.50;4966729;28;20022;-88
2022/07/16 05:32:07;;;;;;;5.65;4.70;;;;;;;22.01;90.45;94522.94;4982460;28;20030;-88
2022/07/16 05:34:32;;;;;;;7.32;4.88;;;;;;;22.13;88.49;94524.78;4981482;28;20461;-88
2022/07/16 05:36:58;;;;;;;6.38;4.95;;;;;;;22.25;93.08;94521.34;4966755;28;20029;-87
2022/07/16 05:39:24;;;;;;;7.57;4.70;;;;;;;22.12;94.87;94528.59;4982534;28;20026;-87
2022/07/16 05:41:50;;;;;;;10.15;4.95;;;;;;;22.26;93.83;94520.97;4966441;28;20345;-87
2022/07/16 05:44:15;;;;;;;6.82;5.05;;;;;;;22.57;92.94;94521.47;4965703;28;20120;-89
2022/07/16 05:46:41;;;;;;;6.57;5.38;;;;;;;22.70;89.85;94522.97;4966195;28;20023;-88
2022/07/16 05:49:06;;;;;;;6.22;4.93;;;;;;;22.67;86.68;94522.88;4982182;28;20451;-88
2022/07/16 05:51:33;;;;;;;7.20;5.10;;;;;;;22.90;85.90;94523.09;4966344;28;20019;-88
2022/07/16 05:53:58;;;;;;;6.68;5.10;;;;;;;22.99;82.96;94528.28;4999195;28;20023;-89
2022/07/16 05:56:23;;;;;;;6.80;4.97;;;;;;;23.14;81.00;94530.19;4966474;28;20034;-88
2022/07/16 05:58:49;;;;;;;8.40;4.90;;;;;;;23.33;83.68;94536.00;4982034;28;20026;-88
2022/07/16 06:01:14;;;;;;;7.07;5.10;;;;;;;23.38;89.33;94525.03;4982082;28;20124;-89
2022/07/16 06:03:40;;;;;;;7.10;5.00;;;;;;;23.62;86.10;94529.44;4981589;28;20026;-87
2022/07/16 06:06:06;;;;;;;10.25;5.10;;;;;;;23.45;86.85;94533.25;4965933;28;20030;-88
2022/07/16 06:08:32;;;;;;;5.63;4.80;;;;;;;23.70;85.40;94535.72;4981723;28;20030;-88
2022/07/16 06:10:59;;;;;;;7.85;4.97;;;;;;;23.84;85.14;94540.63;4962529;28;20026;-89
2022/07/16 06:13:24;;;;;;;6.70;4.40;;;;;;;23.82;87.82;94542.88;4960852;28;20026;-88
2022/07/16 06:15:50;;;;;;;5.47;4.85;;;;;;;23.63;96.72;94540.91;4981882;28;20026;-89
2022/07/16 06:18:17;;;;;;;5.90;4.80;;;;;;;23.96;96.70;94537.84;4981720;28;20093;-87
2022/07/16 06:20:43;;;;;;;7.43;4.78;;;;;;;24.01;92.24;94539.47;4980340;28;20034;-87
2022/07/16 06:23:10;;;;;;;5.85;4.70;;;;;;;24.06;86.77;94541.13;4964882;28;20030;-88
2022/07/16 06:25:37;;;;;;;10.02;5.20;;;;;;;24.19;87.00;94542.56;4981403;28;20403;-88
2022/07/16 06:28:03;;;;;;;8.07;5.10;;;;;;;24.18;81.65;94545.56;4981854;28;20030;-88
2022/07/16 06:30:28;;;;;;;5.82;4.85;;;;;;;24.26;78.37;94542.69;4981089;28;20077;-88
2022/07/16 06:32:55;;;;;;;11.93;4.95;;;;;;;24.42;78.65;94547.22;4980711;28;20041;-88
2022/07/16 06:35:21;;;;;;;10.10;4.68;;;;;;;24.55;79.44;94542.50;4981474;28;20030;-88
2022/07/16 06:37:46;;;;;;;6.00;4.65;;;;;;;24.47;89.16;94548.84;4965600;28;20053;-88
2022/07/16 06:40:12;;;;;;;7.72;4.72;;;;;;;24.59;84.06;94553.28;4980138;28;20038;-87
2022/07/16 06:42:38;;;;;;;6.90;4.65;;;;;;;24.66;99.11;94546.16;4980872;28;20030;-88
2022/07/16 06:45:03;;;;;;;7.68;5.18;;;;;;;24.90;84.29;94546.25;4965357;28;20034;-87
2022/07/16 06:47:29;;;;;;;5.95;4.95;;;;;;;24.78;87.28;94549.84;4964598;28;20061;-88
2022/07/16 06:49:55;;;;;;;11.50;4.80;;;;;;;24.95;86.65;94551.31;4978032;28;20058;-88
2022/07/16 06:52:21;;;;;;;8.93;5.10;;;;;;;25.11;82.86;94545.88;4990216;28;20088;-89
2022/07/16 06:54:49;;;;;;;9.13;5.07;;;;;;;25.19;78.28;94550.19;4980672;28;20042;-89
2022/07/16 06:57:16;;;;;;;9.65;5.15;;;;;;;25.36;79.14;94550.84;4968837;28;20335;-89
2022/07/16 06:59:42;;;;;;;5.95;4.50;;;;;;;25.34;83.40;94567.31;4961621;28;20031;-88
2022/07/16 07:02:10;;;;;;;6.85;4.88;;;;;;;25.40;86.06;94555.16;4965540;28;20551;-89
2022/07/16 07:04:38;;;;;;;8.10;5.00;;;;;;;25.59;83.21;94555.47;4980109;28;20136;-88
2022/07/16 07:07:18;;;;;;;8.00;4.53;;;;;;;25.49;79.77;94557.63;4996996;28;20394;-88
2022/07/16 07:09:57;;;;;;;10.00;5.10;;;;;;;25.61;82.41;94562.03;4977675;28;20169;-87
2022/07/16 07:12:26;;;;;;;12.07;4.93;;;;;;;25.66;82.81;94566.31;4978979;28;20037;-88
2022/07/16 07:14:54;;;;;;;6.15;5.00;;;;;;;25.82;79.08;94568.84;4978191;28;20042;-84
2022/07/16 07:17:29;;;;;;;;;;;;;;;;;;;;;
2022/07/16 07:19:57;;;;;;;7.20;4.88;;;;;;;26.05;75.49;94582.22;4962379;28;20185;-86
2022/07/16 07:22:23;;;;;;;6.20;5.15;;;;;;;26.10;76.54;94573.09;4960775;28;20125;-86
2022/07/16 07:24:50;;;;;;;6.75;5.00;;;;;;;26.25;78.92;94580.22;4977903;28;20105;-86
2022/07/16 07:27:16;;;;;;;8.63;4.90;;;;;;;26.39;80.65;94585.00;4976968;28;20427;-86
2022/07/16 07:29:42;;;;;;;7.38;5.20;;;;;;;26.36;79.16;94577.69;4960894;28;20420;-86
2022/07/16 07:32:07;;;;;;;9.80;5.10;;;;;;;26.45;77.50;94582.78;4978100;28;20022;-86
2022/07/16 07:34:32;;;;;;;7.80;4.63;;;;;;;26.54;79.04;94575.22;4976469;28;20027;-86
2022/07/16 07:36:58;;;;;;;6.22;5.07;;;;;;;26.53;77.36;94578.25;4978037;28;20025;-86
2022/07/16 07:39:23;;;;;;;7.22;4.45;;;;;;;26.59;83.08;94582.19;4977938;28;20499;-86
2022/07/16 07:41:49;;;;;;;9.35;5.20;;;;;;;26.22;80.51;94577.50;4977867;28;20026;-86
2022/07/16 07:44:14;;;;;;;8.30;5.00;;;;;;;26.40;75.38;94580.41;4977688;28;20031;-87
2022/07/16 07:46:40;;;;;;;7.00;4.95;;;;;;;26.24;79.04;94577.91;4977024;28;20093;-85
2022/07/16 07:49:05;;;;;;;8.70;4.90;;;;;;;26.68;79.36;94582.69;4977744;28;20347;-86
2022/07/16 07:51:30;;;;;;;10.05;4.82;;;;;;;26.75;76.43;94589.28;4960469;28;20391;-85
2022/07/16 07:53:56;;;;;;;6.53;4.78;;;;;;;26.65;72.70;94583.41;4977385;28;20042;-86
2022/07/16 07:56:21;;;;;;;6.70;4.03;;;;;;;26.84;70.56;94589.78;4977691;28;20026;-86
2022/07/16 07:58:47;;;;;;;9.23;4.70;;;;;;;26.80;69.97;94584.38;4960333;28;20152;-86
2022/07/16 08:01:12;;;;;;;6.57;4.85;;;;;;;26.86;70.62;94587.53;4960682;28;20031;-85
2022/07/16 08:03:38;;;;;;;8.10;4.75;;;;;;;27.03;71.48;94593.47;4960056;28;20031;-85
2022/07/16 08:06:04;;;;;;;8.60;4.55;;;;;;;27.09;71.25;94590.06;4977767;28;20034;-86
2022/07/16 08:08:34;;;;;;;6.85;4.82;;;;;;;27.24;67.77;94588.28;4976513;28;20031;-86
2022/07/16 08:10:59;;;;;;;8.55;4.82;;;;;;;27.24;75.84;94593.66;4960834;28;20026;-86
2022/07/16 08:13:25;;;;;;;9.82;5.05;;;;;;;27.06;70.06;94593.50;4976315;28;20031;-86
2022/07/16 08:15:50;;;;;;;9.15;4.55;;;;;;;27.14;70.46;94594.34;4960213;28;20029;-85
2022/07/16 08:18:16;;;;;;;8.77;4.93;;;;;;;27.22;70.60;94589.81;4976332;28;20031;-86
2022/07/16 08:20:41;;;;;;;12.70;4.72;;;;;;;27.26;73.21;94605.97;4976327;28;20115;-86
2022/07/16 08:23:07;;;;;;;8.10;4.90;;;;;;;27.23;68.32;94597.50;4976057;28;20333;-86
2022/07/16 08:25:44;;;;;;;8.52;5.40;;;;;;;27.35;68.66;94601.88;4944433;28;20376;-88
2022/07/16 08:28:10;;;;;;;7.75;5.20;;;;;;;27.45;69.01;94602.31;4977525;28;20038;-87
2022/07/16 08:30:35;;;;;;;9.63;5.00;;;;;;;27.20;67.54;94602.88;4960640;28;20030;-86
2022/07/16 08:33:01;;;;;;;7.75;5.25;;;;;;;27.52;68.46;94602.38;4959978;28;20031;-87
2022/07/16 08:35:26;;;;;;;8.85;5.15;;;;;;;27.54;67.14;94604.72;4960394;28;20038;-86
2022/07/16 08:37:52;;;;;;;6.60;4.35;;;;;;;27.61;68.51;94602.88;4960100;28;20464;-87
2022/07/16 08:40:20;;;;;;;9.20;4.95;;;;;;;27.60;70.98;94601.31;4977417;28;20058;-86
2022/07/16 08:42:49;;;;;;;9.15;5.28;;;;;;;27.83;68.42;94602.25;4977037;28;20034;-86
2022/07/16 08:45:22;;;;;;;11.35;5.80;;;;;;;27.97;66.64;94596.22;4960097;28;20053;-86
2022/07/16 08:47:50;;;;;;;8.65;5.10;;;;;;;27.89;66.91;94598.09;4960557;28;20030;-88
2022/07/16 08:50:16;;;;;;;12.02;5.68;;;;;;;27.87;69.54;94603.09;4960185;28;20502;-88
2022/07/16 08:52:44;;;;;;;9.27;5.40;;;;;;;27.80;68.03;94601.13;4977179;28;20063;-87
2022/07/16 08:55:10;;;;;;;17.33;4.85;;;;;;;28.03;67.77;94600.88;4960349;28;20023;-87
2022/07/16 08:57:38;;;;;;;10.50;5.15;;;;;;;27.94;65.04;94606.59;4960328;28;20023;-86
2022/07/16 09:00:07;;;;;;;10.93;4.63;;;;;;;27.88;64.80;94604.63;4959998;28;20061;-86
2022/07/16 09:02:33;;;;;;;9.13;4.75;;;;;;;28.25;65.96;94608.38;4961590;28;20027;-86
2022/07/16 09:04:59;;;;;;;15.07;4.70;;;;;;;28.48;67.18;94608.88;4963376;28;20019;-86
2022/07/16 09:07:25;;;;;;;8.38;4.90;;;;;;;28.48;63.80;94606.19;4947605;28;20031;-86
2022/07/16 09:09:51;;;;;;;10.65;4.80;;;;;;;28.48;63.96;94605.41;4963436;28;20436;-86
2022/07/16 09:12:34;;;;;;;12.38;4.80;;;;;;;28.35;61.93;94602.28;4963045;28;20201;-87
2022/07/16 09:14:59;;;;;;;9.85;4.65;;;;;;;28.29;62.16;94604.56;4963482;28;20031;-86
2022/07/16 09:17:26;;;;;;;15.23;4.90;;;;;;;28.53;62.34;94604.28;4963307;28;20113;-86
2022/07/16 09:19:52;;;;;;;8.90;4.75;;;;;;;27.96;62.27;94608.16;4980489;28;20031;-86
2022/07/16 09:22:17;;;;;;;6.47;4.43;;;;;;;28.33;63.45;94604.56;4980370;28;20467;-86
2022/07/16 09:24:48;;;;;;;8.77;5.10;;;;;;;28.39;62.40;94607.66;4962842;28;20031;-87
2022/07/16 09:27:18;;;;;;;4.88;4.38;;;;;;;28.83;63.39;94609.44;4963172;28;20113;-87
2022/07/16 09:29:44;;;;;;;6.57;4.32;;;;;;;29.03;63.03;94606.44;4963280;28;20031;-87
2022/07/16 09:32:09;;;;;;;9.32;5.00;;;;;;;28.99;61.88;94608.34;4980287;28;20050;-86
2022/07/16 09:34:35;;;;;;;6.03;4.47;;;;;;;29.10;59.77;94613.78;4962624;28;20038;-86
2022/07/16 09:37:03;;;;;;;7.00;4.93;;;;;;;29.20;59.08;94613.78;4980196;28;20027;-87
2022/07/16 09:39:30;;;;;;;7.32;4.80;;;;;;;29.40;62.76;94612.69;4947362;28;20031;-86
2022/07/16 09:41:56;;;;;;;8.80;4.30;;;;;;;29.55;62.16;94605.38;4947023;28;20431;-86
2022/07/16 09:44:31;;;;;;;6.82;4.65;;;;;;;29.58;61.18;94607.34;4962697;28;20031;-87
2022/07/16 09:47:05;;;;;;;6.15;4.78;;;;;;;29.68;60.69;94608.50;4962875;28;20039;-86
2022/07/16 09:49:34;;;;;;;9.20;4.63;;;;;;;29.65;60.15;94607.31;4962914;28;20057;-86
2022/07/16 09:51:59;;;;;;;6.18;4.80;;;;;;;29.68;59.19;94603.09;4946703;28;20117;-85
2022/07/16 09:54:31;;;;;;;6.95;4.68;;;;;;;29.66;59.11;94600.78;4978448;28;20038;-87
2022/07/16 09:57:17;;;;;;;8.60;4.18;;;;;;;29.73;60.40;94608.88;4946106;28;20030;-86
2022/07/16 09:59:43;;;;;;;7.28;4.15;;;;;;;29.96;59.54;94615.03;4978589;28;20030;-87
2022/07/16 10:02:09;;;;;;;4.53;4.05;;;;;;;30.10;58.73;94614.28;4962762;28;20117;-86
2022/07/16 10:04:34;;;;;;;6.68;4.32;;;;;;;30.11;56.96;94610.41;4962562;28;20173;-87
2022/07/16 10:07:00;;;;;;;5.18;4.05;;;;;;;30.23;60.60;94607.31;4962434;28;20324;-86
2022/07/16 10:09:26;;;;;;;9.50;5.25;;;;;;;29.92;57.04;94609.63;4978399;28;20132;-87
2022/07/16 10:11:56;;;;;;;6.13;4.20;;;;;;;30.03;59.96;94609.66;4962156;28;20039;-86
2022/07/16 10:14:22;;;;;;;7.63;4.80;;;;;;;29.61;57.55;94601.16;4978172;28;20355;-86
2022/07/16 10:16:52;;;;;;;7.10;4.45;;;;;;;29.60;56.86;94605.78;4962506;28;20023;-86
2022/07/16 10:19:18;;;;;;;5.80;4.60;;;;;;;29.83;56.66;94610.03;4963884;28;20093;-86
2022/07/16 10:22:18;;;;;;;8.30;5.13;;;;;;;29.84;58.45;94605.38;4979029;28;20034;-86
2022/07/16 10:25:10;;;;;;;8.50;4.50;;;;;;;30.00;56.22;94605.00;4962815;28;20328;-86
2022/07/16 10:27:36;;;;;;;7.07;4.45;;;;;;;29.95;56.68;94610.81;4946926;28;20125;-86
2022/07/16 10:30:18;;;;;;;6.78;4.60;;;;;;;29.83;54.89;94612.72;4979245;28;20066;-87
2022/07/16 10:32:59;;;;;;;9.32;4.82;;;;;;;29.96;57.51;94606.94;4978398;28;20026;-85
2022/07/16 10:35:29;;;;;;;6.97;4.63;;;;;;;30.22;57.00;94607.72;4962104;28;20093;-86
2022/07/16 10:38:27;;;;;;;12.32;4.30;;;;;;;30.12;56.27;94607.34;4977984;28;20033;-86
2022/07/16 10:41:21;;;;;;;8.15;4.63;;;;;;;30.06;56.01;94608.91;4957617;28;20089;-85
2022/07/16 10:44:12;;;;;;;6.35;4.50;;;;;;;30.19;56.37;94601.91;4963084;28;20030;-85
2022/07/16 10:46:59;;;;;;;12.45;4.32;;;;;;;30.27;54.45;94586.47;4962054;28;20030;-87
2022/07/16 10:49:28;;;;;;;6.40;4.47;;;;;;;30.72;56.28;94598.72;4945764;28;20443;-87
2022/07/16 10:52:08;;;;;;;9.27;4.43;;;;;;;30.83;54.19;94588.59;4985450;28;20032;-87
2022/07/16 10:54:40;;;;;;;5.07;4.30;;;;;;;30.57;51.64;94592.56;4977304;28;20535;-87
2022/07/16 10:57:16;;;;;;;5.60;4.20;;;;;;;30.74;51.15;94593.69;4978716;28;20030;-87
2022/07/16 10:59:43;;;;;;;8.65;4.22;;;;;;;30.65;51.19;94593.31;4961460;28;20069;-87
2022/07/16 11:02:16;;;;;;;7.57;4.13;;;;;;;30.95;52.29;94581.22;4977848;28;20047;-86
2022/07/16 11:05:22;;;;;;;7.43;4.32;;;;;;;30.96;50.68;94580.84;4978412;28;20078;-88
2022/07/16 11:07:49;;;;;;;8.48;4.38;;;;;;;30.63;53.78;94582.13;4978436;28;20093;-86
2022/07/16 11:10:15;;;;;;;9.43;4.03;;;;;;;30.78;54.46;94572.81;4960938;28;20031;-85
2022/07/16 11:12:40;;;;;;;9.45;4.68;;;;;;;31.24;54.25;94578.38;4960949;28;20038;-86
2022/07/16 11:15:06;;;;;;;8.15;4.40;;;;;;;31.24;52.33;94583.78;4945323;28;20053;-86
2022/07/16 11:17:33;;;;;;;7.55;4.25;;;;;;;31.14;53.26;94580.75;4945255;28;20462;-87
2022/07/16 11:20:03;;;;;;;5.68;4.00;;;;;;;31.28;51.34;94584.56;4978601;28;20027;-87
2022/07/16 11:22:30;;;;;;;10.18;4.65;;;;;;;31.39;51.81;94585.22;4977223;28;20039;-87
2022/07/16 11:25:02;;;;;;;6.43;4.30;;;;;;;30.78;52.53;94578.22;4977746;28;20031;-87
2022/07/16 11:27:36;;;;;;;8.25;4.47;;;;;;;31.06;53.38;94578.44;4945381;28;20097;-89
2022/07/16 11:30:10;;;;;;;9.10;7.22;;;;;;;31.33;52.45;94588.75;4977307;28;20117;-87
2022/07/16 11:32:43;;;;;;;9.85;5.93;;;;;;;31.19;52.84;94582.25;4944098;28;20432;-87
2022/07/16 11:35:09;;;;;;;10.88;4.55;;;;;;;31.30;53.96;94580.28;4961173;28;20027;-87
2022/07/16 11:37:55;;;;;;;6.72;4.20;;;;;;;31.47;52.12;94569.72;4961046;28;20023;-87
2022/07/16 11:40:37;;;;;;;8.32;4.32;;;;;;;31.28;53.75;94573.72;4977045;28;20035;-86
2022/07/16 11:43:04;;;;;;;5.00;4.15;;;;;;;31.87;52.29;94574.84;4960723;28;20038;-87
2022/07/16 11:45:41;;;;;;;8.38;4.32;;;;;;;31.65;52.38;94582.38;4977919;28;20030;-87
2022/07/16 11:48:17;;;;;;;6.40;3.88;;;;;;;31.81;52.17;94573.72;4961086;28;20463;-88